createdAt,value
2019-04-28T00:01:43.559Z,3.73
2019-04-28T00:04:16.897Z,3.00
2019-04-28T00:06:51.757Z,3.17
2019-04-28T00:09:24.473Z,3.90
2019-04-28T00:11:57.419Z,3.17
2019-04-28T00:14:31.676Z,3.13
2019-04-28T00:17:07.753Z,3.03
2019-04-28T00:19:40.987Z,2.70
2019-04-28T00:22:20.945Z,2.90
2019-04-28T00:25:02.265Z,2.43
2019-04-28T00:27:35.274Z,2.33
2019-04-28T00:30:11.719Z,2.50
2019-04-28T00:32:45.120Z,2.37
2019-04-28T00:35:19.582Z,2.20
2019-04-28T00:37:52.872Z,2.43
2019-04-28T00:40:25.894Z,2.50
2019-04-28T00:43:00.813Z,2.50
2019-04-28T00:45:34.863Z,2.93
2019-04-28T00:48:07.529Z,2.63
2019-04-28T00:50:41.379Z,2.60
2019-04-28T00:53:14.801Z,2.77
2019-04-28T00:55:47.897Z,2.50
2019-04-28T00:58:22.027Z,2.50
2019-04-28T01:00:57.244Z,3.17
2019-04-28T01:03:32.057Z,2.33
2019-04-28T01:06:04.780Z,2.70
2019-04-28T01:08:37.754Z,2.43
2019-04-28T01:11:11.736Z,2.43
2019-04-28T01:16:40.359Z,2.80
2019-04-28T01:19:23.701Z,2.20
2019-04-28T01:22:10.679Z,2.90
2019-04-28T01:24:43.895Z,2.50
2019-04-28T01:27:50.841Z,2.20
2019-04-28T01:30:52.642Z,2.43
2019-04-28T01:34:04.294Z,2.53
2019-04-28T01:36:39.992Z,2.60
2019-04-28T01:39:12.706Z,2.17
2019-04-28T01:41:45.525Z,2.53
2019-04-28T01:44:19.662Z,2.50
2019-04-28T01:46:52.712Z,2.50
2019-04-28T01:49:27.110Z,2.40
2019-04-28T01:52:01.758Z,2.57
2019-04-28T01:54:34.408Z,3.07
2019-04-28T01:57:07.353Z,2.57
2019-04-28T01:59:41.500Z,2.60
2019-04-28T02:02:14.231Z,3.40
2019-04-28T02:04:46.935Z,2.70
2019-04-28T02:07:20.566Z,3.20
2019-04-28T02:09:53.561Z,3.03
2019-04-28T02:12:27.616Z,2.77
2019-04-28T02:15:01.158Z,2.47
2019-04-28T02:17:33.851Z,2.90
2019-04-28T02:20:07.262Z,2.67
2019-04-28T02:22:45.621Z,3.27
2019-04-28T02:25:19.698Z,3.50
2019-04-28T02:27:52.859Z,3.87
2019-04-28T02:30:44.017Z,3.63
2019-04-28T02:33:01.608Z,5.43
2019-04-28T02:35:34.887Z,4.80
2019-04-28T02:38:07.701Z,3.87
2019-04-28T02:40:41.401Z,2.90
2019-04-28T02:43:13.935Z,2.73
2019-04-28T02:45:46.802Z,3.60
2019-04-28T02:48:23.512Z,3.30
2019-04-28T02:51:21.159Z,3.07
2019-04-28T02:53:54.000Z,2.87
2019-04-28T02:56:26.723Z,3.20
2019-04-28T02:59:01.024Z,2.50
2019-04-28T03:01:33.866Z,2.70
2019-04-28T03:04:06.933Z,2.80
2019-04-28T03:06:40.768Z,3.07
2019-04-28T03:09:13.616Z,3.00
2019-04-28T03:11:46.525Z,2.70
2019-04-28T03:14:20.959Z,3.00
2019-04-28T03:16:53.478Z,2.83
2019-04-28T03:19:26.329Z,2.90
2019-04-28T03:22:01.382Z,4.07
2019-04-28T03:24:33.312Z,4.10
2019-04-28T03:27:15.433Z,5.23
2019-04-28T03:29:54.262Z,8.47
2019-04-28T03:32:58.361Z,8.40
2019-04-28T03:35:23.240Z,10.03
2019-04-28T03:37:57.082Z,5.07
2019-04-28T03:40:33.411Z,3.10
2019-04-28T03:43:04.756Z,3.43
2019-04-28T03:45:43.837Z,3.63
2019-04-28T03:48:16.588Z,7.70
2019-04-28T03:50:51.383Z,6.10
2019-04-28T03:53:23.457Z,7.33
2019-04-28T03:55:56.387Z,7.07
2019-04-28T03:58:31.088Z,5.20
2019-04-28T04:01:03.894Z,6.00
2019-04-28T04:03:36.803Z,2.80
2019-04-28T04:06:10.773Z,3.23
2019-04-28T04:08:43.900Z,5.00
2019-04-28T04:11:34.530Z,4.97
2019-04-28T04:14:25.177Z,3.93
2019-04-28T04:17:03.485Z,3.57
2019-04-28T04:19:37.144Z,5.10
2019-04-28T04:22:10.202Z,6.17
2019-04-28T04:24:42.853Z,4.00
2019-04-28T04:27:15.697Z,3.80
2019-04-28T04:29:50.997Z,2.77
2019-04-28T04:32:26.955Z,2.60
2019-04-28T04:35:00.721Z,2.70
2019-04-28T04:37:33.859Z,2.60
2019-04-28T04:40:07.367Z,2.73
2019-04-28T04:42:40.566Z,2.43
2019-04-28T04:45:13.511Z,2.60
2019-04-28T04:47:46.333Z,2.53
2019-04-28T04:50:20.893Z,2.40
2019-04-28T04:52:53.861Z,2.93
2019-04-28T04:55:26.953Z,2.60
2019-04-28T04:58:00.807Z,2.20
2019-04-28T05:00:51.461Z,2.00
2019-04-28T05:03:29.724Z,3.20
2019-04-28T05:06:04.610Z,3.13
2019-04-28T05:08:37.872Z,2.03
2019-04-28T05:11:11.344Z,1.60
2019-04-28T05:13:44.360Z,1.97
2019-04-28T05:16:19.680Z,2.03
2019-04-28T05:18:52.584Z,1.20
2019-04-28T05:21:25.932Z,1.53
2019-04-28T05:24:17.441Z,1.60
2019-04-28T05:26:51.594Z,1.40
2019-04-28T05:29:26.884Z,1.60
2019-04-28T05:32:02.976Z,1.43
2019-04-28T05:34:33.493Z,1.40
2019-04-28T05:37:06.095Z,1.70
2019-04-28T05:39:40.337Z,1.57
2019-04-28T05:42:12.586Z,1.70
2019-04-28T05:44:44.927Z,1.33
2019-04-28T05:47:17.446Z,1.40
2019-04-28T05:50:10.558Z,1.70
2019-04-28T05:53:01.390Z,2.00
2019-04-28T05:56:00.081Z,1.80
2019-04-28T05:58:41.489Z,1.70
2019-04-28T06:01:27.095Z,1.50
2019-04-28T06:04:00.920Z,1.80
2019-04-28T06:06:37.263Z,1.33
2019-04-28T06:09:25.654Z,1.50
2019-04-28T06:12:00.005Z,1.70
2019-04-28T06:14:32.362Z,1.50
2019-04-28T06:17:04.804Z,1.97
2019-04-28T06:19:37.295Z,1.70
2019-04-28T06:22:09.630Z,1.70
2019-04-28T06:24:42.223Z,1.30
2019-04-28T06:27:14.641Z,1.23
2019-04-28T06:29:46.990Z,2.03
2019-04-28T06:32:19.404Z,1.50
2019-04-28T06:34:51.739Z,1.23
2019-04-28T06:37:24.373Z,1.10
2019-04-28T06:39:56.697Z,1.00
2019-04-28T06:42:28.998Z,1.00
2019-04-28T06:45:01.535Z,0.90
2019-04-28T06:47:34.179Z,0.90
2019-04-28T06:50:07.053Z,1.00
2019-04-28T06:52:39.262Z,1.13
2019-04-28T06:55:11.903Z,1.20
2019-04-28T06:57:45.334Z,1.20
2019-04-28T07:00:17.852Z,1.17
2019-04-28T07:02:50.033Z,1.20
2019-04-28T07:05:22.557Z,1.00
2019-04-28T07:07:55.079Z,1.30
2019-04-28T07:10:27.449Z,1.30
2019-04-28T07:12:59.803Z,1.30
2019-04-28T07:15:32.370Z,1.17
2019-04-28T07:18:04.648Z,1.07
2019-04-28T07:21:01.899Z,1.00
2019-04-28T07:23:35.306Z,1.00
2019-04-28T07:26:07.799Z,1.20
2019-04-28T07:28:40.667Z,1.00
2019-04-28T07:31:13.687Z,1.20
2019-04-28T07:33:46.074Z,1.17
2019-04-28T07:36:18.919Z,1.17
2019-04-28T07:38:51.343Z,1.10
2019-04-28T07:41:23.628Z,1.33
2019-04-28T07:43:55.809Z,1.20
2019-04-28T07:46:29.378Z,1.00
2019-04-28T07:49:01.785Z,1.00
2019-04-28T07:51:56.482Z,1.30
2019-04-28T07:54:28.696Z,1.30
2019-04-28T07:57:00.982Z,1.40
2019-04-28T07:59:33.476Z,1.10
2019-04-28T08:02:06.601Z,1.00
2019-04-28T08:04:38.843Z,1.57
2019-04-28T08:07:11.714Z,1.00
2019-04-28T08:09:45.333Z,1.10
2019-04-28T08:12:17.537Z,1.10
2019-04-28T08:14:50.579Z,1.00
2019-04-28T08:17:22.968Z,1.20
2019-04-28T08:19:55.357Z,0.90
2019-04-28T08:22:27.985Z,1.00
2019-04-28T08:25:01.471Z,0.90
2019-04-28T08:27:34.340Z,0.90
2019-04-28T08:30:07.559Z,1.10
2019-04-28T08:33:01.952Z,1.20
2019-04-28T08:35:36.665Z,1.10
2019-04-28T08:38:10.114Z,1.00
2019-04-28T08:40:42.433Z,1.17
2019-04-28T08:43:15.467Z,1.70
2019-04-28T08:45:48.926Z,1.10
2019-04-28T08:48:22.896Z,1.40
2019-04-28T08:50:55.424Z,1.20
2019-04-28T08:53:29.025Z,1.10
2019-04-28T08:56:01.519Z,1.17
2019-04-28T08:58:34.185Z,1.40
2019-04-28T09:01:06.818Z,1.00
2019-04-28T09:03:39.387Z,0.97
2019-04-28T09:06:11.629Z,1.00
2019-04-28T09:08:44.186Z,1.20
2019-04-28T09:11:16.651Z,1.30
2019-04-28T09:13:48.970Z,1.00
2019-04-28T09:16:21.456Z,1.70
2019-04-28T09:18:54.076Z,1.10
2019-04-28T09:21:27.635Z,1.10
2019-04-28T09:23:59.891Z,1.20
2019-04-28T09:26:32.203Z,1.50
2019-04-28T09:29:08.237Z,1.10
2019-04-28T09:31:40.539Z,1.10
2019-04-28T09:34:13.617Z,1.00
2019-04-28T09:36:45.709Z,1.00
2019-04-28T09:39:19.461Z,1.20
2019-04-28T09:42:09.486Z,1.63
2019-04-28T09:44:41.953Z,1.17
2019-04-28T09:47:14.985Z,1.10
2019-04-28T09:49:47.306Z,1.20
2019-04-28T09:52:19.981Z,0.90
2019-04-28T09:54:52.592Z,1.10
2019-04-28T09:57:25.086Z,1.10
2019-04-28T09:59:57.423Z,1.10
2019-04-28T10:02:30.413Z,1.40
2019-04-28T10:05:03.849Z,1.20
2019-04-28T10:07:36.079Z,1.13
2019-04-28T10:10:08.900Z,1.20
2019-04-28T10:12:41.228Z,1.13
2019-04-28T10:15:13.663Z,1.10
2019-04-28T10:17:48.304Z,1.30
2019-04-28T10:20:22.244Z,1.30
2019-04-28T10:22:56.576Z,1.00
2019-04-28T10:25:31.505Z,1.00
2019-04-28T10:28:03.734Z,1.20
2019-04-28T10:30:36.452Z,1.40
2019-04-28T10:33:10.281Z,1.60
2019-04-28T10:35:42.818Z,1.10
2019-04-28T10:38:15.025Z,1.20
2019-04-28T10:40:59.249Z,1.17
2019-04-28T10:43:31.598Z,1.00
2019-04-28T10:46:04.696Z,1.20
2019-04-28T10:48:37.574Z,1.30
2019-04-28T10:51:09.928Z,1.20
2019-04-28T10:53:42.287Z,1.17
2019-04-28T10:56:14.867Z,1.00
2019-04-28T10:58:48.709Z,1.23
2019-04-28T11:01:20.828Z,1.10
2019-04-28T11:03:55.038Z,1.10
2019-04-28T11:06:27.330Z,1.00
2019-04-28T11:09:30.658Z,1.23
2019-04-28T11:12:02.007Z,1.03
2019-04-28T11:14:34.578Z,1.20
2019-04-28T11:17:07.303Z,1.20
2019-04-28T11:19:39.645Z,1.20
2019-04-28T11:22:12.128Z,1.07
2019-04-28T11:24:44.925Z,1.13
2019-04-28T11:27:17.944Z,1.10
2019-04-28T11:29:50.656Z,1.20
2019-04-28T11:32:23.446Z,1.10
2019-04-28T11:35:02.532Z,1.17
2019-04-28T11:37:35.174Z,1.30
2019-04-28T11:40:07.863Z,1.40
2019-04-28T11:42:40.308Z,1.40
2019-04-28T11:45:13.082Z,0.90
2019-04-28T11:47:45.615Z,1.30
2019-04-28T11:50:19.402Z,1.20
2019-04-28T11:52:52.011Z,1.70
2019-04-28T11:55:24.382Z,1.53
2019-04-28T11:57:56.926Z,1.17
2019-04-28T12:00:34.755Z,1.10
2019-04-28T12:03:07.646Z,1.00
2019-04-28T12:05:46.530Z,1.23
2019-04-28T12:08:20.683Z,1.30
2019-04-28T12:11:01.407Z,1.10
2019-04-28T12:13:55.252Z,1.20
2019-04-28T12:16:58.736Z,1.20
2019-04-28T12:19:42.192Z,1.10
2019-04-28T12:22:14.753Z,1.10
2019-04-28T12:24:47.551Z,1.10
2019-04-28T12:27:20.034Z,1.07
2019-04-28T12:29:52.871Z,1.03
2019-04-28T12:32:27.966Z,0.87
2019-04-28T12:35:01.587Z,1.20
2019-04-28T12:37:34.694Z,1.20
2019-04-28T12:40:10.356Z,1.10
2019-04-28T12:42:43.339Z,1.20
2019-04-28T12:45:16.813Z,1.30
2019-04-28T12:47:49.638Z,1.30
2019-04-28T12:50:33.398Z,1.10
2019-04-28T12:53:06.401Z,1.00
2019-04-28T12:55:39.147Z,1.10
2019-04-28T12:58:11.824Z,1.20
2019-04-28T13:01:08.978Z,1.10
2019-04-28T13:03:46.246Z,1.00
2019-04-28T13:06:19.255Z,1.17
2019-04-28T13:08:52.299Z,1.10
2019-04-28T13:11:24.936Z,1.00
2019-04-28T13:13:57.367Z,1.00
2019-04-28T13:16:30.249Z,1.27
2019-04-28T13:19:02.996Z,1.10
2019-04-28T13:21:35.798Z,1.30
2019-04-28T13:24:08.590Z,1.07
2019-04-28T13:26:41.450Z,1.10
2019-04-28T13:29:14.156Z,0.90
2019-04-28T13:31:47.432Z,1.10
2019-04-28T13:34:21.774Z,1.23
2019-04-28T13:36:54.343Z,1.00
2019-04-28T13:39:32.440Z,1.10
2019-04-28T13:42:05.042Z,1.10
2019-04-28T13:44:55.321Z,1.20
2019-04-28T13:50:40.726Z,1.10
2019-04-28T13:53:14.904Z,1.50
2019-04-28T13:56:09.807Z,1.10
2019-04-28T13:59:12.917Z,1.20
2019-04-28T14:02:03.790Z,1.10
2019-04-28T14:04:44.796Z,1.00
2019-04-28T14:07:18.543Z,1.00
2019-04-28T14:09:51.929Z,1.00
2019-04-28T14:12:25.010Z,1.17
2019-04-28T14:14:58.915Z,1.23
2019-04-28T14:17:32.039Z,1.17
2019-04-28T14:20:06.657Z,1.20
2019-04-28T14:22:44.001Z,1.13
2019-04-28T14:25:17.616Z,1.20
2019-04-28T14:27:51.373Z,1.20
2019-04-28T14:30:25.112Z,1.13
2019-04-28T14:32:58.861Z,1.00
2019-04-28T14:35:32.181Z,1.20
2019-04-28T14:38:05.364Z,0.90
2019-04-28T14:40:38.944Z,1.00
2019-04-28T14:43:12.762Z,1.17
2019-04-28T14:45:46.548Z,1.00
2019-04-28T14:48:25.858Z,1.00
2019-04-28T14:51:00.052Z,1.10
2019-04-28T14:53:34.681Z,1.07
2019-04-28T14:56:10.025Z,1.00
2019-04-28T14:58:45.829Z,1.57
2019-04-28T15:01:48.159Z,0.90
2019-04-28T15:04:33.625Z,1.00
2019-04-28T15:07:12.225Z,1.30
2019-04-28T15:10:06.572Z,1.00
2019-04-28T15:12:42.660Z,1.07
2019-04-28T15:15:16.324Z,1.20
2019-04-28T15:17:54.004Z,1.00
2019-04-28T15:20:27.689Z,1.00
2019-04-28T15:23:04.317Z,1.10
2019-04-28T15:25:39.081Z,0.90
2019-04-28T15:28:16.603Z,1.10
2019-04-28T15:30:50.135Z,1.00
2019-04-28T15:33:26.629Z,1.13
2019-04-28T15:36:00.780Z,1.03
2019-04-28T15:38:37.576Z,1.00
2019-04-28T15:41:21.763Z,1.00
2019-04-28T15:43:51.830Z,0.93
2019-04-28T15:46:26.718Z,1.13
2019-04-28T15:49:01.070Z,1.20
2019-04-28T15:51:38.448Z,0.80
2019-04-28T15:54:14.110Z,1.77
2019-04-28T15:56:54.093Z,1.10
2019-04-28T15:59:28.874Z,0.90
2019-04-28T16:02:03.248Z,1.60
2019-04-28T16:04:38.802Z,1.43
2019-04-28T16:07:24.356Z,1.30
2019-04-28T16:09:49.293Z,0.97
2019-04-28T16:12:26.088Z,1.10
2019-04-28T16:15:03.426Z,0.90
2019-04-28T16:17:44.023Z,1.30
2019-04-28T16:20:18.079Z,1.10
2019-04-28T16:22:52.448Z,1.10
2019-04-28T16:25:29.122Z,1.10
2019-04-28T16:28:03.992Z,1.27
2019-04-28T16:30:40.306Z,1.20
2019-04-28T16:33:14.001Z,1.20
2019-04-28T16:35:48.187Z,1.10
2019-04-28T16:38:23.037Z,1.60
2019-04-28T16:40:59.744Z,2.80
2019-04-28T16:43:38.505Z,5.43
2019-04-28T16:46:14.996Z,11.80
2019-04-28T16:48:52.296Z,3.77
2019-04-28T16:51:25.873Z,3.57
2019-04-28T17:13:19.609Z,3.43
2019-04-28T17:15:52.384Z,5.37
2019-04-28T17:18:27.362Z,4.60
2019-04-28T17:21:04.942Z,6.57
2019-04-28T17:23:37.866Z,5.10
2019-04-28T17:29:16.397Z,4.20
2019-04-28T17:31:49.906Z,2.13
2019-04-28T17:34:24.377Z,1.47
2019-04-28T17:37:00.758Z,1.90
2019-04-28T17:39:39.584Z,2.30
2019-04-28T17:42:13.513Z,1.70
2019-04-28T17:44:47.022Z,1.50
2019-04-28T17:47:20.767Z,2.10
2019-04-28T17:50:03.814Z,1.90
2019-04-28T17:52:38.448Z,1.93
2019-04-28T17:55:14.642Z,1.80
2019-04-28T17:57:48.242Z,2.03
2019-04-28T18:00:48.975Z,1.50
2019-04-28T18:03:49.764Z,1.40
2019-04-28T18:06:25.163Z,1.83
2019-04-28T18:09:00.631Z,2.20
2019-04-28T18:11:37.511Z,2.53
2019-04-28T18:14:12.292Z,2.57
2019-04-28T18:17:02.813Z,2.30
2019-04-28T18:19:36.976Z,2.20
2019-04-28T18:22:11.118Z,2.27
2019-04-28T18:24:44.417Z,2.20
2019-04-28T18:27:17.980Z,1.80
2019-04-28T18:29:51.324Z,1.53
2019-04-28T18:32:38.713Z,1.87
2019-04-28T18:35:24.183Z,1.90
2019-04-28T18:38:09.513Z,1.50
2019-04-28T18:41:04.918Z,3.13
2019-04-28T18:43:45.937Z,5.23
2019-04-28T18:46:29.825Z,5.83
2019-04-28T18:49:08.843Z,6.70
2019-04-28T18:51:44.864Z,2.03
2019-04-28T18:54:21.742Z,2.27
2019-04-28T18:56:55.306Z,3.83
2019-04-28T18:59:28.111Z,2.10
2019-04-28T19:02:11.978Z,1.70
2019-04-28T19:04:45.884Z,1.40
2019-04-28T19:07:39.033Z,1.87
2019-04-28T19:10:21.151Z,1.70
2019-04-28T19:13:19.082Z,2.40
2019-04-28T19:16:09.729Z,6.27
2019-04-28T19:18:46.857Z,2.77
2019-04-28T19:21:20.619Z,2.67
2019-04-28T19:23:54.291Z,4.10
2019-04-28T19:26:27.176Z,7.63
2019-04-28T19:28:59.655Z,4.97
2019-04-28T19:31:32.082Z,3.37
2019-04-28T19:34:04.622Z,8.17
2019-04-28T19:36:38.842Z,4.03
2019-04-28T19:39:11.755Z,6.40
2019-04-28T19:41:44.441Z,4.97
2019-04-28T19:44:17.181Z,6.10
2019-04-28T19:46:50.182Z,4.70
2019-04-28T19:49:23.302Z,4.37
2019-04-28T19:51:55.814Z,4.03
2019-04-28T19:54:32.222Z,5.10
2019-04-28T19:57:31.964Z,4.10
2019-04-28T20:00:36.292Z,2.87
2019-04-28T20:03:10.342Z,3.10
2019-04-28T20:05:44.843Z,2.70
2019-04-28T20:08:17.453Z,2.10
2019-04-28T20:10:50.119Z,2.23
2019-04-28T20:13:22.540Z,2.00
2019-04-28T20:15:54.878Z,2.00
2019-04-28T20:18:29.489Z,2.00
2019-04-28T20:21:01.363Z,2.60
2019-04-28T20:23:34.075Z,3.30
2019-04-28T20:26:06.687Z,2.90
2019-04-28T20:28:39.169Z,2.30
2019-04-28T20:31:11.427Z,2.27
2019-04-28T20:33:43.805Z,2.13
2019-04-28T20:36:28.488Z,1.77
2019-04-28T20:39:06.428Z,1.90
2019-04-28T20:41:39.153Z,1.60
2019-04-28T20:44:11.804Z,1.30
2019-04-28T20:46:44.218Z,1.60
2019-04-28T20:49:16.918Z,1.63
2019-04-28T20:51:49.534Z,1.50
2019-04-28T20:54:22.161Z,1.60
2019-04-28T20:56:54.694Z,1.77
2019-04-28T20:59:26.931Z,1.70
2019-04-28T21:01:59.191Z,1.80
2019-04-28T21:04:31.698Z,1.50
2019-04-28T21:07:04.167Z,1.87
2019-04-28T21:09:48.244Z,1.50
2019-04-28T21:12:25.301Z,1.50
2019-04-28T21:14:57.900Z,1.73
2019-04-28T21:17:30.089Z,1.57
2019-04-28T21:20:02.127Z,1.50
2019-04-28T21:22:34.397Z,1.70
2019-04-28T21:25:07.023Z,1.80
2019-04-28T21:27:39.205Z,1.83
2019-04-28T21:30:11.905Z,1.60
2019-04-28T21:32:44.543Z,1.90
2019-04-28T21:35:16.519Z,1.83
2019-04-28T21:37:48.607Z,1.83
2019-04-28T21:40:21.155Z,1.83
2019-04-28T21:43:05.176Z,1.67
2019-04-28T21:45:54.082Z,1.80
2019-04-28T21:48:54.248Z,1.70
2019-04-28T21:51:26.470Z,1.60
2019-04-28T21:53:58.488Z,1.83
2019-04-28T21:56:30.816Z,1.80
2019-04-28T21:59:03.053Z,1.93
2019-04-28T22:01:35.451Z,1.63
2019-04-28T22:04:07.709Z,1.97
2019-04-28T22:06:40.007Z,1.73
2019-04-28T22:09:12.376Z,1.80
2019-04-28T22:11:44.550Z,1.63
2019-04-28T22:14:16.859Z,2.10
2019-04-28T22:16:48.888Z,1.80
2019-04-28T22:19:21.030Z,1.83
2019-04-28T22:21:53.140Z,1.60
2019-04-28T22:24:36.543Z,1.83
2019-04-28T22:27:10.637Z,2.07
2019-04-28T22:29:42.727Z,1.60
2019-04-28T22:32:14.914Z,1.70
2019-04-28T22:34:46.885Z,1.70
2019-04-28T22:37:19.147Z,2.20
2019-04-28T22:39:51.353Z,1.90
2019-04-28T22:42:23.751Z,2.10
2019-04-28T22:44:55.830Z,1.90
2019-04-28T22:47:27.843Z,1.90
2019-04-28T22:49:59.763Z,2.00
2019-04-28T22:52:31.829Z,2.00
2019-04-28T22:55:12.405Z,2.10
2019-04-28T22:58:13.282Z,2.00
2019-04-28T23:01:06.024Z,2.00
2019-04-28T23:03:50.613Z,1.90
2019-04-28T23:06:23.511Z,2.20
2019-04-28T23:08:55.591Z,2.40
2019-04-28T23:11:28.001Z,2.00
2019-04-28T23:14:00.268Z,1.70
2019-04-28T23:16:32.822Z,2.17
2019-04-28T23:19:07.004Z,2.00
2019-04-28T23:21:58.230Z,2.00
2019-04-28T23:24:30.835Z,2.30
2019-04-28T23:27:02.954Z,1.83
2019-04-28T23:29:35.039Z,1.90
2019-04-28T23:32:07.838Z,1.97
2019-04-28T23:34:39.732Z,2.23
2019-04-28T23:37:11.992Z,2.07
2019-04-28T23:39:44.137Z,2.27
2019-04-28T23:42:34.969Z,2.20
2019-04-28T23:45:08.291Z,2.20
2019-04-28T23:47:40.308Z,2.53
2019-04-28T23:50:14.513Z,1.93
2019-04-28T23:53:01.174Z,2.80
2019-04-28T23:55:33.202Z,2.47
2019-04-28T23:58:05.346Z,2.50
